WTB74P LOWW-EDDS
Flight info
| Callsign | WTB74P |
|---|---|
| Flight time | 1h 4m |
| Altitude | 30000 |
| Route | LUGEM DCT KIRDI DCT EBEDA L173 MAH/N0355F240 L173 DODIL T127 TEKSI TEKSI1W |
| Aircraft | A20N/M-SDE2E3FGHIRWXY/LB1 |
Departure
| Time | 2026-05-07 20:00 |
|---|---|
| Airport | Vienna International Airport (LOWW) |
Arrival
| Time | 2026-05-07 21:04 |
|---|---|
| Airport | Stuttgart Airport (EDDS) |
| Time | Latitude | Longitude | Altitude | Speed | Heading |
|---|---|---|---|---|---|
| 2026-05-07 19:46 | 48.11940 | 16.55797 | 601 ft | 0 kts | 295° |
| 2026-05-07 19:50 | 48.11930 | 16.55824 | 601 ft | 4 kts | 298° |
| 2026-05-07 19:50 | 48.11918 | 16.55860 | 602 ft | 4 kts | 288° |
| 2026-05-07 19:51 | 48.11915 | 16.55897 | 602 ft | 4 kts | 251° |
| 2026-05-07 19:51 | 48.11927 | 16.55922 | 601 ft | 1 kts | 206° |
| 2026-05-07 19:53 | 48.11926 | 16.55921 | 601 ft | 1 kts | 206° |
| 2026-05-07 19:53 | 48.11888 | 16.55894 | 603 ft | 7 kts | 205° |
| 2026-05-07 19:54 | 48.11853 | 16.55870 | 610 ft | 7 kts | 206° |
| 2026-05-07 19:54 | 48.11773 | 16.55858 | 614 ft | 12 kts | 145° |
| 2026-05-07 19:54 | 48.11728 | 16.55962 | 620 ft | 13 kts | 116° |
| 2026-05-07 19:54 | 48.11658 | 16.56179 | 618 ft | 28 kts | 116° |
| 2026-05-07 19:55 | 48.11579 | 16.56421 | 617 ft | 26 kts | 116° |
| 2026-05-07 19:55 | 48.11504 | 16.56653 | 618 ft | 23 kts | 115° |
| 2026-05-07 19:55 | 48.11436 | 16.56863 | 624 ft | 22 kts | 116° |
| 2026-05-07 19:55 | 48.11372 | 16.57061 | 628 ft | 21 kts | 116° |
| 2026-05-07 19:56 | 48.11309 | 16.57253 | 626 ft | 21 kts | 116° |
| 2026-05-07 19:56 | 48.11245 | 16.57448 | 623 ft | 22 kts | 116° |
| 2026-05-07 19:56 | 48.11197 | 16.57581 | 621 ft | 8 kts | 135° |
| 2026-05-07 19:56 | 48.11153 | 16.57597 | 628 ft | 6 kts | 187° |
| 2026-05-07 19:57 | 48.11086 | 16.57638 | 623 ft | 17 kts | 153° |
| 2026-05-07 19:57 | 48.11026 | 16.57634 | 617 ft | 0 kts | 204° |
| 2026-05-07 19:58 | 48.11010 | 16.57621 | 618 ft | 8 kts | 210° |
| 2026-05-07 19:58 | 48.10952 | 16.57509 | 628 ft | 14 kts | 256° |
| 2026-05-07 19:59 | 48.10970 | 16.57365 | 631 ft | 15 kts | 293° |
| 2026-05-07 19:59 | 48.11044 | 16.57134 | 632 ft | 51 kts | 295° |
| 2026-05-07 19:59 | 48.11301 | 16.56342 | 624 ft | 116 kts | 296° |
| 2026-05-07 19:59 | 48.11732 | 16.55017 | 616 ft | 165 kts | 296° |
| 2026-05-07 20:00 | 48.12278 | 16.53384 | 911 ft | 183 kts | 292° |
| 2026-05-07 20:00 | 48.12478 | 16.51634 | 1789 ft | 167 kts | 259° |
| 2026-05-07 20:00 | 48.12137 | 16.49880 | 2126 ft | 187 kts | 254° |
| 2026-05-07 20:00 | 48.11752 | 16.47904 | 2386 ft | 208 kts | 256° |
| 2026-05-07 20:01 | 48.11342 | 16.45698 | 2706 ft | 232 kts | 256° |
| 2026-05-07 20:01 | 48.10896 | 16.43258 | 3162 ft | 252 kts | 257° |
| 2026-05-07 20:01 | 48.10432 | 16.40691 | 3928 ft | 258 kts | 257° |
| 2026-05-07 20:01 | 48.09974 | 16.38083 | 4839 ft | 259 kts | 259° |
| 2026-05-07 20:02 | 48.09822 | 16.35414 | 5700 ft | 260 kts | 273° |
| 2026-05-07 20:02 | 48.09867 | 16.32690 | 6479 ft | 265 kts | 273° |
| 2026-05-07 20:02 | 48.09917 | 16.29909 | 7219 ft | 270 kts | 273° |
| 2026-05-07 20:02 | 48.09969 | 16.27083 | 8000 ft | 273 kts | 273° |
| 2026-05-07 20:03 | 48.10021 | 16.24223 | 8795 ft | 276 kts | 272° |
| 2026-05-07 20:03 | 48.10072 | 16.21334 | 9589 ft | 280 kts | 273° |
| 2026-05-07 20:03 | 48.10244 | 16.18420 | 10329 ft | 282 kts | 277° |
| 2026-05-07 20:03 | 48.10494 | 16.15496 | 11062 ft | 285 kts | 278° |
| 2026-05-07 20:04 | 48.10774 | 16.12551 | 11797 ft | 287 kts | 278° |
| 2026-05-07 20:04 | 48.11062 | 16.09575 | 12536 ft | 290 kts | 277° |
| 2026-05-07 20:04 | 48.11348 | 16.06582 | 13270 ft | 292 kts | 277° |
| 2026-05-07 20:04 | 48.11626 | 16.03590 | 13972 ft | 295 kts | 276° |
| 2026-05-07 20:05 | 48.11903 | 16.00540 | 14609 ft | 297 kts | 276° |
| 2026-05-07 20:05 | 48.12177 | 15.97460 | 15240 ft | 300 kts | 276° |
| 2026-05-07 20:05 | 48.12454 | 15.94352 | 15876 ft | 302 kts | 276° |
| 2026-05-07 20:05 | 48.12731 | 15.91227 | 16533 ft | 304 kts | 276° |
| 2026-05-07 20:06 | 48.13012 | 15.88077 | 17146 ft | 307 kts | 277° |
| 2026-05-07 20:06 | 48.13296 | 15.84893 | 17737 ft | 311 kts | 277° |
| 2026-05-07 20:06 | 48.13580 | 15.81673 | 18350 ft | 313 kts | 276° |
| 2026-05-07 20:06 | 48.13864 | 15.78423 | 18872 ft | 316 kts | 276° |
| 2026-05-07 20:07 | 48.14150 | 15.75151 | 19403 ft | 318 kts | 276° |
| 2026-05-07 20:07 | 48.14438 | 15.71848 | 19932 ft | 320 kts | 276° |
| 2026-05-07 20:07 | 48.14727 | 15.68527 | 20456 ft | 323 kts | 276° |
| 2026-05-07 20:07 | 48.15017 | 15.65183 | 20966 ft | 325 kts | 276° |
| 2026-05-07 20:08 | 48.15308 | 15.61813 | 21483 ft | 327 kts | 276° |
| 2026-05-07 20:08 | 48.15599 | 15.58418 | 21996 ft | 330 kts | 276° |
| 2026-05-07 20:08 | 48.15890 | 15.55004 | 22508 ft | 332 kts | 276° |
| 2026-05-07 20:08 | 48.16177 | 15.51605 | 23032 ft | 333 kts | 275° |
| 2026-05-07 20:09 | 48.16466 | 15.48146 | 23541 ft | 336 kts | 275° |
| 2026-05-07 20:09 | 48.16757 | 15.44667 | 23960 ft | 338 kts | 275° |
| 2026-05-07 20:09 | 48.17050 | 15.41172 | 24395 ft | 339 kts | 275° |
| 2026-05-07 20:10 | 48.17439 | 15.34102 | 25250 ft | 342 kts | 271° |
| 2026-05-07 20:10 | 48.17524 | 15.30532 | 25669 ft | 343 kts | 270° |
| 2026-05-07 20:10 | 48.17585 | 15.26942 | 26088 ft | 345 kts | 270° |
| 2026-05-07 20:10 | 48.17642 | 15.23348 | 26502 ft | 347 kts | 270° |
| 2026-05-07 20:11 | 48.17705 | 15.19730 | 26905 ft | 348 kts | 270° |
| 2026-05-07 20:11 | 48.17776 | 15.16094 | 27301 ft | 350 kts | 270° |
| 2026-05-07 20:11 | 48.17854 | 15.12487 | 27697 ft | 352 kts | 270° |
| 2026-05-07 20:11 | 48.17937 | 15.08769 | 28112 ft | 353 kts | 271° |
| 2026-05-07 20:12 | 48.18020 | 15.05139 | 28514 ft | 354 kts | 271° |
| 2026-05-07 20:12 | 48.18103 | 15.01444 | 28905 ft | 355 kts | 271° |
| 2026-05-07 20:12 | 48.18186 | 14.97737 | 29283 ft | 357 kts | 271° |
| 2026-05-07 20:12 | 48.18269 | 14.94009 | 29655 ft | 359 kts | 271° |
| 2026-05-07 20:13 | 48.18352 | 14.90265 | 29992 ft | 361 kts | 271° |
| 2026-05-07 20:13 | 48.18507 | 14.82757 | 30054 ft | 360 kts | 270° |
| 2026-05-07 20:14 | 48.18653 | 14.75265 | 30052 ft | 360 kts | 270° |
| 2026-05-07 20:14 | 48.18788 | 14.67766 | 30072 ft | 360 kts | 270° |
| 2026-05-07 20:15 | 48.18925 | 14.60259 | 30060 ft | 361 kts | 271° |
| 2026-05-07 20:15 | 48.19064 | 14.52742 | 30064 ft | 361 kts | 270° |
| 2026-05-07 20:16 | 48.19194 | 14.45228 | 30070 ft | 360 kts | 270° |
| 2026-05-07 20:16 | 48.19316 | 14.37724 | 30070 ft | 360 kts | 270° |
| 2026-05-07 20:17 | 48.19433 | 14.30269 | 30070 ft | 360 kts | 270° |
| 2026-05-07 20:17 | 48.19546 | 14.22606 | 30089 ft | 378 kts | 271° |
| 2026-05-07 20:18 | 48.19668 | 14.14511 | 30084 ft | 397 kts | 271° |
| 2026-05-07 20:18 | 48.19783 | 14.06091 | 30057 ft | 408 kts | 271° |
| 2026-05-07 20:19 | 48.19891 | 13.97573 | 30060 ft | 409 kts | 271° |
| 2026-05-07 20:19 | 48.19992 | 13.89047 | 30060 ft | 409 kts | 271° |
| 2026-05-07 20:20 | 48.20088 | 13.80512 | 30068 ft | 409 kts | 271° |
| 2026-05-07 20:20 | 48.20181 | 13.72022 | 30065 ft | 410 kts | 271° |
| 2026-05-07 20:21 | 48.20268 | 13.63481 | 30050 ft | 410 kts | 271° |
| 2026-05-07 20:21 | 48.20347 | 13.54944 | 30052 ft | 410 kts | 271° |
| 2026-05-07 20:22 | 48.20424 | 13.46374 | 30052 ft | 410 kts | 271° |
| 2026-05-07 20:22 | 48.20493 | 13.37812 | 30056 ft | 411 kts | 271° |
| 2026-05-07 20:23 | 48.20549 | 13.29240 | 30049 ft | 411 kts | 271° |
| 2026-05-07 20:23 | 48.20605 | 13.20662 | 30052 ft | 412 kts | 271° |
| 2026-05-07 20:24 | 48.20652 | 13.12077 | 30053 ft | 412 kts | 270° |
| 2026-05-07 20:24 | 48.20694 | 13.03554 | 30057 ft | 412 kts | 270° |
| 2026-05-07 20:25 | 48.20729 | 12.94958 | 30063 ft | 412 kts | 270° |
| 2026-05-07 20:25 | 48.20756 | 12.86368 | 30059 ft | 412 kts | 270° |
| 2026-05-07 20:26 | 48.20501 | 12.77793 | 30059 ft | 412 kts | 265° |
| 2026-05-07 20:26 | 48.19938 | 12.69241 | 30056 ft | 412 kts | 264° |
| 2026-05-07 20:27 | 48.19354 | 12.60699 | 30058 ft | 412 kts | 264° |
| 2026-05-07 20:27 | 48.18770 | 12.52146 | 30060 ft | 412 kts | 264° |
| 2026-05-07 20:28 | 48.18193 | 12.43595 | 30059 ft | 412 kts | 264° |
| 2026-05-07 20:28 | 48.17707 | 12.36483 | 30071 ft | 413 kts | 264° |
| 2026-05-07 20:29 | 48.17112 | 12.27938 | 30056 ft | 412 kts | 264° |
| 2026-05-07 20:29 | 48.16410 | 12.18010 | 30068 ft | 412 kts | 264° |
| 2026-05-07 20:30 | 48.16154 | 12.10845 | 30058 ft | 412 kts | 274° |
| 2026-05-07 20:30 | 48.16715 | 12.02304 | 30059 ft | 412 kts | 275° |
| 2026-05-07 20:31 | 48.17272 | 11.93816 | 30067 ft | 412 kts | 275° |
| 2026-05-07 20:31 | 48.17807 | 11.85257 | 30067 ft | 412 kts | 275° |
| 2026-05-07 20:32 | 48.18848 | 11.76817 | 30064 ft | 412 kts | 283° |
| 2026-05-07 20:32 | 48.20248 | 11.68481 | 30065 ft | 412 kts | 283° |
| 2026-05-07 20:33 | 48.21628 | 11.60126 | 30059 ft | 413 kts | 283° |
| 2026-05-07 20:33 | 48.22998 | 11.51767 | 30071 ft | 413 kts | 283° |
| 2026-05-07 20:34 | 48.24362 | 11.43407 | 30071 ft | 413 kts | 283° |
| 2026-05-07 20:34 | 48.25831 | 11.35081 | 30074 ft | 413 kts | 290° |
| 2026-05-07 20:35 | 48.28696 | 11.27672 | 30085 ft | 421 kts | 308° |
| 2026-05-07 20:35 | 48.32816 | 11.21215 | 30094 ft | 431 kts | 312° |
| 2026-05-07 20:36 | 48.36995 | 11.14732 | 30097 ft | 432 kts | 312° |
| 2026-05-07 20:36 | 48.41170 | 11.08231 | 30111 ft | 432 kts | 312° |
| 2026-05-07 20:37 | 48.45339 | 11.01726 | 30112 ft | 432 kts | 312° |
| 2026-05-07 20:37 | 48.49510 | 10.95211 | 30110 ft | 432 kts | 312° |
| 2026-05-07 20:38 | 48.53649 | 10.88659 | 30094 ft | 431 kts | 311° |
| 2026-05-07 20:38 | 48.57754 | 10.82056 | 30105 ft | 431 kts | 311° |
| 2026-05-07 20:39 | 48.61863 | 10.75468 | 30104 ft | 430 kts | 312° |
| 2026-05-07 20:39 | 48.65992 | 10.68919 | 30098 ft | 430 kts | 312° |
| 2026-05-07 20:40 | 48.70117 | 10.62348 | 30104 ft | 429 kts | 309° |
| 2026-05-07 20:40 | 48.71750 | 10.58599 | 30103 ft | 427 kts | 293° |
| 2026-05-07 20:40 | 48.72614 | 10.54327 | 30102 ft | 425 kts | 278° |
| 2026-05-07 20:40 | 48.72662 | 10.49859 | 30094 ft | 426 kts | 265° |
| 2026-05-07 20:41 | 48.72314 | 10.45407 | 30086 ft | 426 kts | 264° |
| 2026-05-07 20:41 | 48.71577 | 10.36549 | 30087 ft | 427 kts | 264° |
| 2026-05-07 20:42 | 48.70819 | 10.27624 | 30080 ft | 427 kts | 264° |
| 2026-05-07 20:42 | 48.70058 | 10.18693 | 30082 ft | 428 kts | 264° |
| 2026-05-07 20:43 | 48.69298 | 10.09760 | 30074 ft | 428 kts | 264° |
| 2026-05-07 20:43 | 48.68547 | 10.00821 | 30067 ft | 428 kts | 264° |
| 2026-05-07 20:44 | 48.67802 | 9.91875 | 30060 ft | 428 kts | 264° |
| 2026-05-07 20:44 | 48.67072 | 9.83156 | 29397 ft | 408 kts | 264° |
| 2026-05-07 20:44 | 48.66720 | 9.78940 | 28423 ft | 401 kts | 264° |
| 2026-05-07 20:45 | 48.66380 | 9.74777 | 27444 ft | 394 kts | 264° |
| 2026-05-07 20:45 | 48.66053 | 9.70657 | 26154 ft | 396 kts | 264° |
| 2026-05-07 20:45 | 48.65828 | 9.66578 | 25417 ft | 384 kts | 273° |
| 2026-05-07 20:45 | 48.66344 | 9.62680 | 24605 ft | 376 kts | 291° |
| 2026-05-07 20:46 | 48.67710 | 9.59358 | 23897 ft | 370 kts | 313° |
| 2026-05-07 20:46 | 48.69732 | 9.57160 | 23772 ft | 350 kts | 334° |
| 2026-05-07 20:46 | 48.72029 | 9.56275 | 23471 ft | 337 kts | 353° |
| 2026-05-07 20:46 | 48.74399 | 9.56636 | 22262 ft | 352 kts | 16° |
| 2026-05-07 20:47 | 48.76620 | 9.58335 | 21063 ft | 366 kts | 32° |
| 2026-05-07 20:47 | 48.78718 | 9.60636 | 19874 ft | 376 kts | 35° |
| 2026-05-07 20:47 | 48.80817 | 9.63016 | 18974 ft | 376 kts | 35° |
| 2026-05-07 20:47 | 48.82882 | 9.65364 | 18164 ft | 374 kts | 35° |
| 2026-05-07 20:48 | 48.84976 | 9.67748 | 17324 ft | 370 kts | 35° |
| 2026-05-07 20:48 | 48.87019 | 9.70078 | 16551 ft | 365 kts | 35° |
| 2026-05-07 20:48 | 48.89010 | 9.72347 | 15789 ft | 360 kts | 35° |
| 2026-05-07 20:48 | 48.90998 | 9.74609 | 15088 ft | 354 kts | 35° |
| 2026-05-07 20:49 | 48.92956 | 9.76822 | 14403 ft | 348 kts | 35° |
| 2026-05-07 20:49 | 48.94890 | 9.78994 | 13711 ft | 343 kts | 35° |
| 2026-05-07 20:49 | 48.96615 | 9.81400 | 13232 ft | 330 kts | 54° |
| 2026-05-07 20:49 | 48.97557 | 9.84448 | 12990 ft | 313 kts | 77° |
| 2026-05-07 20:50 | 48.97621 | 9.87692 | 12500 ft | 305 kts | 102° |
| 2026-05-07 20:50 | 48.96878 | 9.90681 | 11879 ft | 302 kts | 118° |
| 2026-05-07 20:50 | 48.95813 | 9.93421 | 11263 ft | 300 kts | 126° |
| 2026-05-07 20:50 | 48.94464 | 9.95799 | 10648 ft | 295 kts | 137° |
| 2026-05-07 20:51 | 48.92996 | 9.97970 | 10193 ft | 293 kts | 138° |
| 2026-05-07 20:51 | 48.91500 | 10.00080 | 10077 ft | 292 kts | 146° |
| 2026-05-07 20:51 | 48.89776 | 10.01700 | 10079 ft | 292 kts | 153° |
| 2026-05-07 20:51 | 48.87983 | 10.03172 | 10096 ft | 293 kts | 155° |
| 2026-05-07 20:52 | 48.86078 | 10.04116 | 10086 ft | 286 kts | 179° |
| 2026-05-07 20:52 | 48.84144 | 10.03793 | 9827 ft | 278 kts | 199° |
| 2026-05-07 20:52 | 48.82315 | 10.02897 | 9416 ft | 276 kts | 201° |
| 2026-05-07 20:52 | 48.80586 | 10.01687 | 9030 ft | 271 kts | 219° |
| 2026-05-07 20:53 | 48.79389 | 9.99547 | 8630 ft | 267 kts | 244° |
| 2026-05-07 20:53 | 48.78651 | 9.96997 | 8397 ft | 259 kts | 249° |
| 2026-05-07 20:53 | 48.78100 | 9.94465 | 8265 ft | 248 kts | 258° |
| 2026-05-07 20:53 | 48.77827 | 9.91934 | 8138 ft | 238 kts | 262° |
| 2026-05-07 20:54 | 48.77611 | 9.89534 | 8007 ft | 228 kts | 262° |
| 2026-05-07 20:54 | 48.77404 | 9.87176 | 7773 ft | 224 kts | 262° |
| 2026-05-07 20:54 | 48.77201 | 9.84846 | 7464 ft | 223 kts | 262° |
| 2026-05-07 20:54 | 48.76997 | 9.82507 | 7061 ft | 226 kts | 262° |
| 2026-05-07 20:55 | 48.76791 | 9.80150 | 6866 ft | 219 kts | 262° |
| 2026-05-07 20:55 | 48.76604 | 9.77994 | 6752 ft | 195 kts | 262° |
| 2026-05-07 20:55 | 48.76435 | 9.76050 | 6601 ft | 177 kts | 262° |
| 2026-05-07 20:55 | 48.76280 | 9.74272 | 6486 ft | 164 kts | 262° |
| 2026-05-07 20:56 | 48.76136 | 9.72604 | 6264 ft | 157 kts | 262° |
| 2026-05-07 20:56 | 48.75998 | 9.70998 | 6030 ft | 149 kts | 262° |
| 2026-05-07 20:56 | 48.75863 | 9.69457 | 5682 ft | 147 kts | 262° |
| 2026-05-07 20:56 | 48.75728 | 9.67927 | 5321 ft | 147 kts | 262° |
| 2026-05-07 20:57 | 48.75589 | 9.66401 | 5078 ft | 143 kts | 262° |
| 2026-05-07 20:57 | 48.75446 | 9.64860 | 5080 ft | 148 kts | 262° |
| 2026-05-07 20:57 | 48.75305 | 9.63338 | 5074 ft | 148 kts | 262° |
| 2026-05-07 20:57 | 48.75161 | 9.61791 | 5070 ft | 149 kts | 262° |
| 2026-05-07 20:58 | 48.75015 | 9.60233 | 5071 ft | 150 kts | 262° |
| 2026-05-07 20:58 | 48.74868 | 9.58669 | 5070 ft | 150 kts | 262° |
| 2026-05-07 20:58 | 48.74720 | 9.57104 | 5070 ft | 150 kts | 262° |
| 2026-05-07 20:58 | 48.74573 | 9.55544 | 5069 ft | 150 kts | 262° |
| 2026-05-07 20:59 | 48.74424 | 9.53976 | 5070 ft | 150 kts | 262° |
| 2026-05-07 20:59 | 48.74277 | 9.52412 | 5070 ft | 150 kts | 262° |
| 2026-05-07 20:59 | 48.74139 | 9.50849 | 5038 ft | 151 kts | 263° |
| 2026-05-07 20:59 | 48.73973 | 9.49273 | 4701 ft | 152 kts | 258° |
| 2026-05-07 21:00 | 48.73740 | 9.47727 | 4418 ft | 150 kts | 256° |
| 2026-05-07 21:00 | 48.73481 | 9.46203 | 4202 ft | 149 kts | 255° |
| 2026-05-07 21:00 | 48.73209 | 9.44689 | 3986 ft | 149 kts | 255° |
| 2026-05-07 21:00 | 48.72930 | 9.43176 | 3783 ft | 149 kts | 255° |
| 2026-05-07 21:01 | 48.72649 | 9.41661 | 3580 ft | 149 kts | 255° |
| 2026-05-07 21:01 | 48.72366 | 9.40146 | 3379 ft | 149 kts | 254° |
| 2026-05-07 21:01 | 48.72083 | 9.38636 | 3176 ft | 149 kts | 254° |
| 2026-05-07 21:01 | 48.71800 | 9.37126 | 2967 ft | 149 kts | 254° |
| 2026-05-07 21:02 | 48.71520 | 9.35633 | 2771 ft | 149 kts | 254° |
| 2026-05-07 21:02 | 48.71236 | 9.34123 | 2554 ft | 149 kts | 254° |
| 2026-05-07 21:02 | 48.70953 | 9.32616 | 2362 ft | 149 kts | 254° |
| 2026-05-07 21:02 | 48.70669 | 9.31108 | 2153 ft | 148 kts | 254° |
| 2026-05-07 21:03 | 48.70383 | 9.29612 | 1945 ft | 148 kts | 253° |
| 2026-05-07 21:03 | 48.70100 | 9.28127 | 1764 ft | 147 kts | 254° |
| 2026-05-07 21:03 | 48.69825 | 9.26643 | 1572 ft | 146 kts | 254° |
| 2026-05-07 21:03 | 48.69545 | 9.25176 | 1357 ft | 145 kts | 254° |
| 2026-05-07 21:04 | 48.69270 | 9.23710 | 1206 ft | 138 kts | 255° |
| 2026-05-07 21:04 | 48.69049 | 9.22518 | 1227 ft | 101 kts | 255° |
| 2026-05-07 21:04 | 48.68943 | 9.21894 | 1243 ft | 30 kts | 270° |
| 2026-05-07 21:04 | 48.68961 | 9.21621 | 1260 ft | 24 kts | 282° |
| 2026-05-07 21:05 | 48.68990 | 9.21455 | 1260 ft | 6 kts | 284° |
| 2026-05-07 21:05 | 48.68996 | 9.21419 | 1264 ft | 1 kts | 284° |
| 2026-05-07 21:05 | 48.69002 | 9.21379 | 1259 ft | 21 kts | 284° |
| 2026-05-07 21:05 | 48.69040 | 9.21110 | 1268 ft | 22 kts | 263° |
| 2026-05-07 21:06 | 48.69003 | 9.20892 | 1275 ft | 21 kts | 254° |
| 2026-05-07 21:06 | 48.68962 | 9.20687 | 1278 ft | 22 kts | 253° |
| 2026-05-07 21:06 | 48.68922 | 9.20470 | 1284 ft | 21 kts | 254° |
| 2026-05-07 21:06 | 48.68885 | 9.20271 | 1289 ft | 19 kts | 254° |
| 2026-05-07 21:07 | 48.68851 | 9.20095 | 1293 ft | 15 kts | 253° |
| 2026-05-07 21:07 | 48.68821 | 9.19979 | 1295 ft | 10 kts | 249° |
| 2026-05-07 21:07 | 48.68878 | 9.19879 | 1301 ft | 21 kts | 345° |
| 2026-05-07 21:07 | 48.68963 | 9.19983 | 1303 ft | 16 kts | 59° |
| 2026-05-07 21:08 | 48.68985 | 9.20113 | 1300 ft | 14 kts | 126° |
| 2026-05-07 21:08 | 48.68934 | 9.20153 | 1296 ft | 0 kts | 163° |